sensor_id;sensor_type;location;lat;lon;timestamp;temperature;humidity
19732;DHT22;10017;54.350;18.532;2023-03-30T00:00:49;5.70;59.20
19732;DHT22;10017;54.350;18.532;2023-03-30T00:03:21;5.70;59.90
19732;DHT22;10017;54.350;18.532;2023-03-30T00:05:56;5.70;65.80
19732;DHT22;10017;54.350;18.532;2023-03-30T00:08:33;5.70;68.50
19732;DHT22;10017;54.350;18.532;2023-03-30T00:11:06;5.70;67.40
19732;DHT22;10017;54.350;18.532;2023-03-30T00:13:41;5.70;73.10
19732;DHT22;10017;54.350;18.532;2023-03-30T00:16:13;5.70;80.00
19732;DHT22;10017;54.350;18.532;2023-03-30T00:18:45;5.60;82.80
19732;DHT22;10017;54.350;18.532;2023-03-30T00:21:20;5.70;86.80
19732;DHT22;10017;54.350;18.532;2023-03-30T00:23:54;5.70;86.80
19732;DHT22;10017;54.350;18.532;2023-03-30T00:26:28;5.70;91.80
19732;DHT22;10017;54.350;18.532;2023-03-30T00:29:00;5.70;92.30
19732;DHT22;10017;54.350;18.532;2023-03-30T00:31:32;5.70;95.00
19732;DHT22;10017;54.350;18.532;2023-03-30T00:34:04;5.70;97.90
19732;DHT22;10017;54.350;18.532;2023-03-30T00:36:36;5.70;99.40
19732;DHT22;10017;54.350;18.532;2023-03-30T00:39:08;5.70;99.90
19732;DHT22;10017;54.350;18.532;2023-03-30T00:41:39;5.70;99.90
19732;DHT22;10017;54.350;18.532;2023-03-30T00:47:02;5.70;99.90
19732;DHT22;10017;54.350;18.532;2023-03-30T00:49:37;5.70;99.90
19732;DHT22;10017;54.350;18.532;2023-03-30T00:52:09;5.70;99.90
19732;DHT22;10017;54.350;18.532;2023-03-30T00:54:41;5.70;99.90
19732;DHT22;10017;54.350;18.532;2023-03-30T00:57:13;5.70;99.90
19732;DHT22;10017;54.350;18.532;2023-03-30T00:59:45;5.70;99.90
19732;DHT22;10017;54.350;18.532;2023-03-30T01:02:18;5.70;99.90
19732;DHT22;10017;54.350;18.532;2023-03-30T01:04:53;5.70;99.90
19732;DHT22;10017;54.350;18.532;2023-03-30T01:07:25;5.70;99.90
19732;DHT22;10017;54.350;18.532;2023-03-30T01:09:57;5.70;99.90
19732;DHT22;10017;54.350;18.532;2023-03-30T01:12:29;5.70;99.90
19732;DHT22;10017;54.350;18.532;2023-03-30T01:15:01;5.70;99.90
19732;DHT22;10017;54.350;18.532;2023-03-30T01:29:12;5.70;99.90
19732;DHT22;10017;54.350;18.532;2023-03-30T01:31:33;5.80;99.90
19732;DHT22;10017;54.350;18.532;2023-03-30T01:47:35;5.70;99.90
19732;DHT22;10017;54.350;18.532;2023-03-30T01:50:12;5.70;99.90
19732;DHT22;10017;54.350;18.532;2023-03-30T01:52:49;5.70;99.90
19732;DHT22;10017;54.350;18.532;2023-03-30T01:55:34;5.70;99.90
19732;DHT22;10017;54.350;18.532;2023-03-30T02:00:39;5.60;99.90
19732;DHT22;10017;54.350;18.532;2023-03-30T02:03:18;5.60;99.90
19732;DHT22;10017;54.350;18.532;2023-03-30T02:05:55;5.60;99.90
19732;DHT22;10017;54.350;18.532;2023-03-30T02:08:31;5.60;99.90
19732;DHT22;10017;54.350;18.532;2023-03-30T02:11:03;5.60;99.90
19732;DHT22;10017;54.350;18.532;2023-03-30T02:13:38;5.60;99.90
19732;DHT22;10017;54.350;18.532;2023-03-30T02:16:15;5.50;99.90
19732;DHT22;10017;54.350;18.532;2023-03-30T02:18:49;5.50;99.90
19732;DHT22;10017;54.350;18.532;2023-03-30T02:21:21;5.60;99.90
19732;DHT22;10017;54.350;18.532;2023-03-30T02:23:53;5.50;99.90
19732;DHT22;10017;54.350;18.532;2023-03-30T02:26:25;5.50;99.90
19732;DHT22;10017;54.350;18.532;2023-03-30T02:28:57;5.50;99.90
19732;DHT22;10017;54.350;18.532;2023-03-30T02:31:29;5.50;99.90
19732;DHT22;10017;54.350;18.532;2023-03-30T02:47:48;5.40;99.90
19732;DHT22;10017;54.350;18.532;2023-03-30T02:51:10;5.40;99.90
19732;DHT22;10017;54.350;18.532;2023-03-30T02:53:41;5.30;99.90
19732;DHT22;10017;54.350;18.532;2023-03-30T02:56:19;5.30;99.90
19732;DHT22;10017;54.350;18.532;2023-03-30T02:59:01;5.30;99.90
19732;DHT22;10017;54.350;18.532;2023-03-30T03:01:44;5.30;99.90
19732;DHT22;10017;54.350;18.532;2023-03-30T03:04:19;5.30;99.90
19732;DHT22;10017;54.350;18.532;2023-03-30T03:06:55;5.30;99.90
19732;DHT22;10017;54.350;18.532;2023-03-30T03:09:27;5.30;99.90
19732;DHT22;10017;54.350;18.532;2023-03-30T03:11:59;5.30;99.90
19732;DHT22;10017;54.350;18.532;2023-03-30T03:14:31;5.30;99.90
19732;DHT22;10017;54.350;18.532;2023-03-30T03:17:03;5.30;99.90
19732;DHT22;10017;54.350;18.532;2023-03-30T03:19:36;5.30;99.90
19732;DHT22;10017;54.350;18.532;2023-03-30T03:22:08;5.20;99.90
19732;DHT22;10017;54.350;18.532;2023-03-30T03:24:42;5.30;99.90
19732;DHT22;10017;54.350;18.532;2023-03-30T03:27:15;5.30;99.90
19732;DHT22;10017;54.350;18.532;2023-03-30T03:29:47;5.20;99.90
19732;DHT22;10017;54.350;18.532;2023-03-30T03:32:20;5.20;99.90
19732;DHT22;10017;54.350;18.532;2023-03-30T03:34:52;5.20;99.90
19732;DHT22;10017;54.350;18.532;2023-03-30T03:37:24;5.20;99.90
19732;DHT22;10017;54.350;18.532;2023-03-30T03:39:56;5.20;99.90
19732;DHT22;10017;54.350;18.532;2023-03-30T03:42:27;5.20;99.90
19732;DHT22;10017;54.350;18.532;2023-03-30T03:44:59;5.20;99.90
19732;DHT22;10017;54.350;18.532;2023-03-30T03:47:31;5.20;99.90
19732;DHT22;10017;54.350;18.532;2023-03-30T03:50:03;5.20;99.90
19732;DHT22;10017;54.350;18.532;2023-03-30T03:52:39;5.10;99.90
19732;DHT22;10017;54.350;18.532;2023-03-30T03:55:14;5.10;99.90
19732;DHT22;10017;54.350;18.532;2023-03-30T03:57:46;5.10;99.90
19732;DHT22;10017;54.350;18.532;2023-03-30T04:00:20;5.10;99.90
19732;DHT22;10017;54.350;18.532;2023-03-30T04:02:56;5.10;99.90
19732;DHT22;10017;54.350;18.532;2023-03-30T04:05:28;5.10;99.90
19732;DHT22;10017;54.350;18.532;2023-03-30T04:07:59;5.10;99.90
19732;DHT22;10017;54.350;18.532;2023-03-30T04:10:32;5.00;99.90
19732;DHT22;10017;54.350;18.532;2023-03-30T04:13:06;5.00;99.90
19732;DHT22;10017;54.350;18.532;2023-03-30T04:15:38;5.00;99.90
19732;DHT22;10017;54.350;18.532;2023-03-30T04:18:12;5.00;99.90
19732;DHT22;10017;54.350;18.532;2023-03-30T04:20:46;5.00;99.90
19732;DHT22;10017;54.350;18.532;2023-03-30T04:23:22;5.10;99.90
19732;DHT22;10017;54.350;18.532;2023-03-30T04:25:53;5.10;99.90
19732;DHT22;10017;54.350;18.532;2023-03-30T04:28:25;5.10;99.90
19732;DHT22;10017;54.350;18.532;2023-03-30T04:31:04;5.10;99.90
19732;DHT22;10017;54.350;18.532;2023-03-30T04:33:36;5.20;99.90
19732;DHT22;10017;54.350;18.532;2023-03-30T04:36:13;5.20;99.90
19732;DHT22;10017;54.350;18.532;2023-03-30T04:38:49;5.20;99.90
19732;DHT22;10017;54.350;18.532;2023-03-30T04:41:30;5.30;99.90
19732;DHT22;10017;54.350;18.532;2023-03-30T04:44:07;5.30;99.90
19732;DHT22;10017;54.350;18.532;2023-03-30T04:46:39;5.30;99.90
19732;DHT22;10017;54.350;18.532;2023-03-30T04:49:11;5.40;99.90
19732;DHT22;10017;54.350;18.532;2023-03-30T04:51:43;5.40;99.90
19732;DHT22;10017;54.350;18.532;2023-03-30T04:54:15;5.50;99.90
19732;DHT22;10017;54.350;18.532;2023-03-30T04:56:47;5.50;99.90
19732;DHT22;10017;54.350;18.532;2023-03-30T04:59:19;5.50;99.90
19732;DHT22;10017;54.350;18.532;2023-03-30T05:01:51;5.50;99.90
19732;DHT22;10017;54.350;18.532;2023-03-30T05:04:23;5.50;99.90
19732;DHT22;10017;54.350;18.532;2023-03-30T05:06:55;5.60;99.90
19732;DHT22;10017;54.350;18.532;2023-03-30T05:09:27;5.60;99.90
19732;DHT22;10017;54.350;18.532;2023-03-30T05:11:59;5.70;99.90
19732;DHT22;10017;54.350;18.532;2023-03-30T05:14:31;5.70;99.90
19732;DHT22;10017;54.350;18.532;2023-03-30T05:17:03;5.80;99.90
19732;DHT22;10017;54.350;18.532;2023-03-30T05:19:35;5.80;99.90
19732;DHT22;10017;54.350;18.532;2023-03-30T05:22:07;5.90;99.90
19732;DHT22;10017;54.350;18.532;2023-03-30T05:24:39;5.90;99.90
19732;DHT22;10017;54.350;18.532;2023-03-30T05:27:13;5.90;99.90
19732;DHT22;10017;54.350;18.532;2023-03-30T05:29:48;6.00;99.90
19732;DHT22;10017;54.350;18.532;2023-03-30T05:32:20;6.00;99.90
19732;DHT22;10017;54.350;18.532;2023-03-30T05:34:52;6.10;99.90
19732;DHT22;10017;54.350;18.532;2023-03-30T05:37:26;6.10;99.90
19732;DHT22;10017;54.350;18.532;2023-03-30T05:39:58;6.20;99.90
19732;DHT22;10017;54.350;18.532;2023-03-30T05:42:30;6.30;99.90
19732;DHT22;10017;54.350;18.532;2023-03-30T05:45:02;6.30;99.90
19732;DHT22;10017;54.350;18.532;2023-03-30T05:47:36;6.30;99.90
19732;DHT22;10017;54.350;18.532;2023-03-30T05:50:08;6.40;99.90
19732;DHT22;10017;54.350;18.532;2023-03-30T05:52:40;6.40;99.90
19732;DHT22;10017;54.350;18.532;2023-03-30T05:55:11;6.40;99.90
19732;DHT22;10017;54.350;18.532;2023-03-30T05:57:44;6.50;99.90
19732;DHT22;10017;54.350;18.532;2023-03-30T06:00:18;6.50;99.90
19732;DHT22;10017;54.350;18.532;2023-03-30T06:02:51;6.60;99.90
19732;DHT22;10017;54.350;18.532;2023-03-30T06:05:24;6.70;99.90
19732;DHT22;10017;54.350;18.532;2023-03-30T06:07:58;6.80;99.90
19732;DHT22;10017;54.350;18.532;2023-03-30T06:10:31;6.90;99.90
19732;DHT22;10017;54.350;18.532;2023-03-30T06:13:03;7.00;99.90
19732;DHT22;10017;54.350;18.532;2023-03-30T06:15:35;7.00;99.90
19732;DHT22;10017;54.350;18.532;2023-03-30T06:18:09;7.00;99.90
19732;DHT22;10017;54.350;18.532;2023-03-30T06:20:41;7.10;99.90
19732;DHT22;10017;54.350;18.532;2023-03-30T06:23:13;7.10;99.90
19732;DHT22;10017;54.350;18.532;2023-03-30T06:25:47;7.10;99.90
19732;DHT22;10017;54.350;18.532;2023-03-30T06:28:23;7.10;99.90
19732;DHT22;10017;54.350;18.532;2023-03-30T06:30:55;7.20;99.90
19732;DHT22;10017;54.350;18.532;2023-03-30T06:33:27;7.10;99.90
19732;DHT22;10017;54.350;18.532;2023-03-30T06:35:59;7.20;99.90
19732;DHT22;10017;54.350;18.532;2023-03-30T06:38:31;7.30;99.90
19732;DHT22;10017;54.350;18.532;2023-03-30T06:41:04;7.40;99.90
19732;DHT22;10017;54.350;18.532;2023-03-30T06:43:39;7.40;99.90
19732;DHT22;10017;54.350;18.532;2023-03-30T06:46:10;7.60;99.90
19732;DHT22;10017;54.350;18.532;2023-03-30T06:48:43;7.70;99.90
19732;DHT22;10017;54.350;18.532;2023-03-30T06:51:17;7.80;99.90
19732;DHT22;10017;54.350;18.532;2023-03-30T06:53:50;7.90;99.90
19732;DHT22;10017;54.350;18.532;2023-03-30T06:56:22;7.90;99.90
19732;DHT22;10017;54.350;18.532;2023-03-30T06:58:57;8.10;99.90
19732;DHT22;10017;54.350;18.532;2023-03-30T07:01:29;8.10;99.90
19732;DHT22;10017;54.350;18.532;2023-03-30T07:04:01;8.30;99.90
19732;DHT22;10017;54.350;18.532;2023-03-30T07:06:33;8.40;99.90
19732;DHT22;10017;54.350;18.532;2023-03-30T07:09:05;8.50;99.90
19732;DHT22;10017;54.350;18.532;2023-03-30T07:11:37;8.60;99.90
19732;DHT22;10017;54.350;18.532;2023-03-30T07:14:09;8.80;99.50
19732;DHT22;10017;54.350;18.532;2023-03-30T07:16:41;8.80;96.80
19732;DHT22;10017;54.350;18.532;2023-03-30T07:19:14;8.90;99.00
19732;DHT22;10017;54.350;18.532;2023-03-30T07:21:46;9.00;91.70
19732;DHT22;10017;54.350;18.532;2023-03-30T07:24:18;9.10;91.30
19732;DHT22;10017;54.350;18.532;2023-03-30T07:26:52;9.10;79.10
19732;DHT22;10017;54.350;18.532;2023-03-30T07:29:24;9.20;83.10
19732;DHT22;10017;54.350;18.532;2023-03-30T07:31:58;9.30;83.80
19732;DHT22;10017;54.350;18.532;2023-03-30T07:34:30;9.50;53.30
19732;DHT22;10017;54.350;18.532;2023-03-30T07:37:04;9.60;49.80
19732;DHT22;10017;54.350;18.532;2023-03-30T07:39:38;9.80;52.10
19732;DHT22;10017;54.350;18.532;2023-03-30T07:42:10;10.10;27.30
19732;DHT22;10017;54.350;18.532;2023-03-30T07:44:44;10.50;5.70
19732;DHT22;10017;54.350;18.532;2023-03-30T07:47:16;10.80;1.00
19732;DHT22;10017;54.350;18.532;2023-03-30T07:49:48;10.90;1.00
19732;DHT22;10017;54.350;18.532;2023-03-30T07:52:20;11.10;1.00
19732;DHT22;10017;54.350;18.532;2023-03-30T07:54:52;11.00;1.00
19732;DHT22;10017;54.350;18.532;2023-03-30T07:57:25;10.90;1.00
19732;DHT22;10017;54.350;18.532;2023-03-30T07:59:57;11.00;1.00
19732;DHT22;10017;54.350;18.532;2023-03-30T08:02:29;11.10;1.00
19732;DHT22;10017;54.350;18.532;2023-03-30T08:05:01;11.20;1.30
19732;DHT22;10017;54.350;18.532;2023-03-30T08:07:33;11.40;3.00
19732;DHT22;10017;54.350;18.532;2023-03-30T08:10:06;11.50;1.00
19732;DHT22;10017;54.350;18.532;2023-03-30T08:12:38;11.50;1.00
19732;DHT22;10017;54.350;18.532;2023-03-30T08:15:10;11.50;1.00
19732;DHT22;10017;54.350;18.532;2023-03-30T08:17:45;11.40;1.00
19732;DHT22;10017;54.350;18.532;2023-03-30T08:20:17;11.20;1.00
19732;DHT22;10017;54.350;18.532;2023-03-30T08:22:49;11.00;1.00
19732;DHT22;10017;54.350;18.532;2023-03-30T08:25:21;10.80;1.20
19732;DHT22;10017;54.350;18.532;2023-03-30T08:27:52;10.70;9.50
19732;DHT22;10017;54.350;18.532;2023-03-30T08:30:24;10.70;8.90
19732;DHT22;10017;54.350;18.532;2023-03-30T08:32:56;10.70;2.30
19732;DHT22;10017;54.350;18.532;2023-03-30T08:35:28;10.60;2.30
19732;DHT22;10017;54.350;18.532;2023-03-30T08:38:00;10.80;11.00
19732;DHT22;10017;54.350;18.532;2023-03-30T08:40:36;11.00;1.00
19732;DHT22;10017;54.350;18.532;2023-03-30T08:45:43;11.30;1.00
19732;DHT22;10017;54.350;18.532;2023-03-30T08:48:22;11.50;1.00
19732;DHT22;10017;54.350;18.532;2023-03-30T08:50:56;11.70;1.00
19732;DHT22;10017;54.350;18.532;2023-03-30T08:53:29;11.90;1.00
19732;DHT22;10017;54.350;18.532;2023-03-30T08:56:23;12.00;1.00
19732;DHT22;10017;54.350;18.532;2023-03-30T08:59:07;11.90;1.00
19732;DHT22;10017;54.350;18.532;2023-03-30T09:07:16;12.30;1.00
19732;DHT22;10017;54.350;18.532;2023-03-30T09:09:49;12.50;1.00
19732;DHT22;10017;54.350;18.532;2023-03-30T09:12:44;12.60;1.00
19732;DHT22;10017;54.350;18.532;2023-03-30T09:15:21;12.80;1.00
19732;DHT22;10017;54.350;18.532;2023-03-30T09:20:46;13.10;1.00
19732;DHT22;10017;54.350;18.532;2023-03-30T09:23:18;13.30;1.00
19732;DHT22;10017;54.350;18.532;2023-03-30T09:28:55;13.30;1.00
19732;DHT22;10017;54.350;18.532;2023-03-30T09:34:09;13.40;1.00
19732;DHT22;10017;54.350;18.532;2023-03-30T09:47:34;13.30;1.00
19732;DHT22;10017;54.350;18.532;2023-03-30T09:50:11;13.30;1.00
19732;DHT22;10017;54.350;18.532;2023-03-30T09:52:54;13.20;1.00
19732;DHT22;10017;54.350;18.532;2023-03-30T09:55:28;13.20;1.00
19732;DHT22;10017;54.350;18.532;2023-03-30T10:00:45;13.40;1.00
19732;DHT22;10017;54.350;18.532;2023-03-30T10:03:18;13.40;1.00
19732;DHT22;10017;54.350;18.532;2023-03-30T10:08:42;13.30;1.00
19732;DHT22;10017;54.350;18.532;2023-03-30T10:11:20;13.20;1.00
19732;DHT22;10017;54.350;18.532;2023-03-30T10:13:55;13.00;1.00
19732;DHT22;10017;54.350;18.532;2023-03-30T10:16:28;13.00;1.00
19732;DHT22;10017;54.350;18.532;2023-03-30T10:19:03;13.00;1.00
19732;DHT22;10017;54.350;18.532;2023-03-30T10:21:38;13.10;1.00
19732;DHT22;10017;54.350;18.532;2023-03-30T10:24:21;13.20;1.00
19732;DHT22;10017;54.350;18.532;2023-03-30T10:29:58;13.60;1.00
19732;DHT22;10017;54.350;18.532;2023-03-30T10:32:39;13.90;1.00
19732;DHT22;10017;54.350;18.532;2023-03-30T10:35:20;14.10;1.00
19732;DHT22;10017;54.350;18.532;2023-03-30T10:37:53;14.30;1.00
19732;DHT22;10017;54.350;18.532;2023-03-30T10:40:36;14.20;1.00
19732;DHT22;10017;54.350;18.532;2023-03-30T10:43:19;14.30;1.00
19732;DHT22;10017;54.350;18.532;2023-03-30T10:45:53;14.30;1.00
19732;DHT22;10017;54.350;18.532;2023-03-30T10:56:42;14.50;1.00
19732;DHT22;10017;54.350;18.532;2023-03-30T11:04:50;14.60;1.00
19732;DHT22;10017;54.350;18.532;2023-03-30T11:07:28;14.50;1.00
19732;DHT22;10017;54.350;18.532;2023-03-30T11:10:06;14.40;1.00
19732;DHT22;10017;54.350;18.532;2023-03-30T11:12:45;14.30;1.00
19732;DHT22;10017;54.350;18.532;2023-03-30T11:15:19;14.30;1.00
19732;DHT22;10017;54.350;18.532;2023-03-30T11:17:54;14.20;1.00
19732;DHT22;10017;54.350;18.532;2023-03-30T11:20:29;14.10;1.00
19732;DHT22;10017;54.350;18.532;2023-03-30T11:23:05;14.10;1.00
19732;DHT22;10017;54.350;18.532;2023-03-30T11:25:43;14.20;1.00
19732;DHT22;10017;54.350;18.532;2023-03-30T11:28:25;14.20;1.00
19732;DHT22;10017;54.350;18.532;2023-03-30T11:31:03;14.30;1.00
19732;DHT22;10017;54.350;18.532;2023-03-30T11:33:41;14.40;1.00
19732;DHT22;10017;54.350;18.532;2023-03-30T11:36:18;14.40;1.00
19732;DHT22;10017;54.350;18.532;2023-03-30T11:38:56;14.50;1.00
19732;DHT22;10017;54.350;18.532;2023-03-30T11:41:36;14.60;1.00
19732;DHT22;10017;54.350;18.532;2023-03-30T11:44:13;14.80;1.00
19732;DHT22;10017;54.350;18.532;2023-03-30T11:52:30;15.00;1.00
19732;DHT22;10017;54.350;18.532;2023-03-30T12:00:29;14.60;1.00
19732;DHT22;10017;54.350;18.532;2023-03-30T12:05:44;14.30;1.00
19732;DHT22;10017;54.350;18.532;2023-03-30T12:11:17;14.20;1.00
19732;DHT22;10017;54.350;18.532;2023-03-30T12:13:51;14.10;1.00
19732;DHT22;10017;54.350;18.532;2023-03-30T12:16:24;14.10;1.00
19732;DHT22;10017;54.350;18.532;2023-03-30T12:19:04;14.00;1.00
19732;DHT22;10017;54.350;18.532;2023-03-30T12:21:58;13.90;1.00
19732;DHT22;10017;54.350;18.532;2023-03-30T12:24:38;13.90;1.00
19732;DHT22;10017;54.350;18.532;2023-03-30T12:27:12;14.00;1.00
19732;DHT22;10017;54.350;18.532;2023-03-30T12:32:33;14.10;1.00
19732;DHT22;10017;54.350;18.532;2023-03-30T12:35:44;14.10;1.00
19732;DHT22;10017;54.350;18.532;2023-03-30T12:37:57;13.90;1.00
19732;DHT22;10017;54.350;18.532;2023-03-30T12:40:29;13.90;1.00
19732;DHT22;10017;54.350;18.532;2023-03-30T12:43:10;13.80;1.00
19732;DHT22;10017;54.350;18.532;2023-03-30T12:45:51;13.70;1.00
19732;DHT22;10017;54.350;18.532;2023-03-30T12:48:36;13.60;1.00
19732;DHT22;10017;54.350;18.532;2023-03-30T12:51:15;13.40;1.00
19732;DHT22;10017;54.350;18.532;2023-03-30T12:53:59;13.40;1.00
19732;DHT22;10017;54.350;18.532;2023-03-30T12:59:11;13.20;1.00
19732;DHT22;10017;54.350;18.532;2023-03-30T13:04:33;13.20;1.00
19732;DHT22;10017;54.350;18.532;2023-03-30T13:07:06;13.10;1.00
19732;DHT22;10017;54.350;18.532;2023-03-30T13:12:35;12.70;1.00
19732;DHT22;10017;54.350;18.532;2023-03-30T13:17:57;12.50;1.00
19732;DHT22;10017;54.350;18.532;2023-03-30T13:20:32;12.30;7.90
19732;DHT22;10017;54.350;18.532;2023-03-30T13:25:44;12.20;39.20
19732;DHT22;10017;54.350;18.532;2023-03-30T13:31:24;12.20;91.40
19732;DHT22;10017;54.350;18.532;2023-03-30T13:37:34;12.20;99.90
19732;DHT22;10017;54.350;18.532;2023-03-30T13:50:14;12.10;99.90
19732;DHT22;10017;54.350;18.532;2023-03-30T13:52:49;11.90;99.90
19732;DHT22;10017;54.350;18.532;2023-03-30T13:55:32;11.70;99.90
19732;DHT22;10017;54.350;18.532;2023-03-30T13:58:09;11.40;99.90
19732;DHT22;10017;54.350;18.532;2023-03-30T14:03:29;11.10;99.90
19732;DHT22;10017;54.350;18.532;2023-03-30T14:06:06;10.90;99.90
19732;DHT22;10017;54.350;18.532;2023-03-30T14:08:42;10.80;99.90
19732;DHT22;10017;54.350;18.532;2023-03-30T14:13:50;10.60;99.90
19732;DHT22;10017;54.350;18.532;2023-03-30T14:16:24;10.50;99.90
19732;DHT22;10017;54.350;18.532;2023-03-30T14:21:47;10.50;99.90
19732;DHT22;10017;54.350;18.532;2023-03-30T14:24:28;10.50;99.90
19732;DHT22;10017;54.350;18.532;2023-03-30T14:27:11;10.40;99.90
19732;DHT22;10017;54.350;18.532;2023-03-30T14:29:44;10.40;99.90
19732;DHT22;10017;54.350;18.532;2023-03-30T14:32:17;10.40;99.90
19732;DHT22;10017;54.350;18.532;2023-03-30T14:34:52;10.40;99.90
19732;DHT22;10017;54.350;18.532;2023-03-30T14:37:24;10.40;99.90
19732;DHT22;10017;54.350;18.532;2023-03-30T14:39:56;10.50;99.90
19732;DHT22;10017;54.350;18.532;2023-03-30T14:42:31;10.50;99.90
19732;DHT22;10017;54.350;18.532;2023-03-30T14:45:06;10.50;99.90
19732;DHT22;10017;54.350;18.532;2023-03-30T14:47:39;10.50;99.90
19732;DHT22;10017;54.350;18.532;2023-03-30T14:50:11;10.50;99.90
19732;DHT22;10017;54.350;18.532;2023-03-30T14:52:45;10.50;99.90
19732;DHT22;10017;54.350;18.532;2023-03-30T14:55:21;10.40;99.90
19732;DHT22;10017;54.350;18.532;2023-03-30T14:57:56;10.30;99.90
19732;DHT22;10017;54.350;18.532;2023-03-30T15:00:28;10.30;99.90
19732;DHT22;10017;54.350;18.532;2023-03-30T15:03:01;10.30;99.90
19732;DHT22;10017;54.350;18.532;2023-03-30T15:05:35;10.30;99.90
19732;DHT22;10017;54.350;18.532;2023-03-30T15:08:12;10.30;99.90
19732;DHT22;10017;54.350;18.532;2023-03-30T15:10:57;10.30;99.90
19732;DHT22;10017;54.350;18.532;2023-03-30T15:16:02;10.20;99.90
19732;DHT22;10017;54.350;18.532;2023-03-30T15:18:34;10.10;99.90
19732;DHT22;10017;54.350;18.532;2023-03-30T15:21:07;10.10;99.90
19732;DHT22;10017;54.350;18.532;2023-03-30T15:23:41;10.10;99.90
19732;DHT22;10017;54.350;18.532;2023-03-30T15:26:13;10.00;99.90
19732;DHT22;10017;54.350;18.532;2023-03-30T15:28:47;10.00;99.90
19732;DHT22;10017;54.350;18.532;2023-03-30T15:31:19;10.00;99.90
19732;DHT22;10017;54.350;18.532;2023-03-30T15:36:33;9.90;99.90
19732;DHT22;10017;54.350;18.532;2023-03-30T15:39:20;9.80;99.90
19732;DHT22;10017;54.350;18.532;2023-03-30T15:44:31;9.70;99.90
19732;DHT22;10017;54.350;18.532;2023-03-30T15:47:05;9.70;99.90
19732;DHT22;10017;54.350;18.532;2023-03-30T15:49:40;9.60;99.90
19732;DHT22;10017;54.350;18.532;2023-03-30T15:52:23;9.60;99.90
19732;DHT22;10017;54.350;18.532;2023-03-30T15:54:56;9.60;99.90
19732;DHT22;10017;54.350;18.532;2023-03-30T15:57:35;9.60;99.90
19732;DHT22;10017;54.350;18.532;2023-03-30T16:00:15;9.60;99.90
19732;DHT22;10017;54.350;18.532;2023-03-30T16:02:52;9.50;99.90
19732;DHT22;10017;54.350;18.532;2023-03-30T16:05:31;9.50;99.90
19732;DHT22;10017;54.350;18.532;2023-03-30T16:08:04;9.50;99.90
19732;DHT22;10017;54.350;18.532;2023-03-30T16:10:36;9.50;99.90
19732;DHT22;10017;54.350;18.532;2023-03-30T16:13:08;9.50;99.90
19732;DHT22;10017;54.350;18.532;2023-03-30T16:15:41;9.50;99.90
19732;DHT22;10017;54.350;18.532;2023-03-30T16:18:15;9.50;99.90
19732;DHT22;10017;54.350;18.532;2023-03-30T16:20:47;9.50;99.90
19732;DHT22;10017;54.350;18.532;2023-03-30T16:23:19;9.50;99.90
19732;DHT22;10017;54.350;18.532;2023-03-30T16:25:51;9.50;99.90
19732;DHT22;10017;54.350;18.532;2023-03-30T16:28:23;9.40;99.90
19732;DHT22;10017;54.350;18.532;2023-03-30T16:30:55;9.40;99.90
19732;DHT22;10017;54.350;18.532;2023-03-30T16:33:28;9.40;99.90
19732;DHT22;10017;54.350;18.532;2023-03-30T16:36:00;9.40;99.90
19732;DHT22;10017;54.350;18.532;2023-03-30T16:38:31;9.40;99.90
19732;DHT22;10017;54.350;18.532;2023-03-30T16:41:03;9.40;99.90
19732;DHT22;10017;54.350;18.532;2023-03-30T16:43:36;9.40;99.90
19732;DHT22;10017;54.350;18.532;2023-03-30T16:46:10;9.40;99.90
19732;DHT22;10017;54.350;18.532;2023-03-30T16:48:43;9.40;99.90
19732;DHT22;10017;54.350;18.532;2023-03-30T16:51:15;9.40;99.90
19732;DHT22;10017;54.350;18.532;2023-03-30T16:53:47;9.30;99.90
19732;DHT22;10017;54.350;18.532;2023-03-30T16:56:19;9.30;99.90
19732;DHT22;10017;54.350;18.532;2023-03-30T16:58:52;9.30;99.90
19732;DHT22;10017;54.350;18.532;2023-03-30T17:01:23;9.30;99.90
19732;DHT22;10017;54.350;18.532;2023-03-30T17:03:56;9.30;99.90
19732;DHT22;10017;54.350;18.532;2023-03-30T17:06:28;9.30;99.90
19732;DHT22;10017;54.350;18.532;2023-03-30T17:09:00;9.20;99.90
19732;DHT22;10017;54.350;18.532;2023-03-30T17:11:32;9.20;99.90
19732;DHT22;10017;54.350;18.532;2023-03-30T17:14:04;9.20;99.90
19732;DHT22;10017;54.350;18.532;2023-03-30T17:16:36;9.20;99.90
19732;DHT22;10017;54.350;18.532;2023-03-30T17:19:11;9.20;99.90
19732;DHT22;10017;54.350;18.532;2023-03-30T17:21:43;9.20;99.90
19732;DHT22;10017;54.350;18.532;2023-03-30T17:24:16;9.20;99.90
19732;DHT22;10017;54.350;18.532;2023-03-30T17:26:48;9.20;99.90
19732;DHT22;10017;54.350;18.532;2023-03-30T17:29:20;9.20;99.90
19732;DHT22;10017;54.350;18.532;2023-03-30T17:31:52;9.10;99.90
19732;DHT22;10017;54.350;18.532;2023-03-30T17:34:24;9.10;99.90
19732;DHT22;10017;54.350;18.532;2023-03-30T17:36:55;9.10;99.90
19732;DHT22;10017;54.350;18.532;2023-03-30T17:39:27;9.10;99.90
19732;DHT22;10017;54.350;18.532;2023-03-30T17:42:03;9.10;99.90
19732;DHT22;10017;54.350;18.532;2023-03-30T17:44:35;9.00;99.90
19732;DHT22;10017;54.350;18.532;2023-03-30T17:47:08;9.00;99.90
19732;DHT22;10017;54.350;18.532;2023-03-30T17:49:40;9.00;99.90
19732;DHT22;10017;54.350;18.532;2023-03-30T17:52:12;9.00;99.90
19732;DHT22;10017;54.350;18.532;2023-03-30T17:54:43;9.00;99.90
19732;DHT22;10017;54.350;18.532;2023-03-30T17:57:16;9.00;99.90
19732;DHT22;10017;54.350;18.532;2023-03-30T17:59:51;8.90;99.90
19732;DHT22;10017;54.350;18.532;2023-03-30T18:02:22;9.00;99.90
19732;DHT22;10017;54.350;18.532;2023-03-30T18:04:59;8.90;99.90
19732;DHT22;10017;54.350;18.532;2023-03-30T18:07:32;8.90;99.90
19732;DHT22;10017;54.350;18.532;2023-03-30T18:10:12;8.90;99.90
19732;DHT22;10017;54.350;18.532;2023-03-30T18:12:46;8.90;99.90
19732;DHT22;10017;54.350;18.532;2023-03-30T18:15:20;8.90;99.90
19732;DHT22;10017;54.350;18.532;2023-03-30T18:17:54;8.90;99.90
19732;DHT22;10017;54.350;18.532;2023-03-30T18:20:37;8.90;99.90
19732;DHT22;10017;54.350;18.532;2023-03-30T18:23:09;8.90;99.90
19732;DHT22;10017;54.350;18.532;2023-03-30T18:25:41;8.90;99.90
19732;DHT22;10017;54.350;18.532;2023-03-30T18:28:21;8.90;99.90
19732;DHT22;10017;54.350;18.532;2023-03-30T18:30:57;8.90;99.90
19732;DHT22;10017;54.350;18.532;2023-03-30T18:33:34;8.90;99.90
19732;DHT22;10017;54.350;18.532;2023-03-30T18:36:08;8.80;99.90
19732;DHT22;10017;54.350;18.532;2023-03-30T18:38:43;8.80;99.90
19732;DHT22;10017;54.350;18.532;2023-03-30T18:41:16;8.80;99.90
19732;DHT22;10017;54.350;18.532;2023-03-30T18:43:48;8.80;99.90
19732;DHT22;10017;54.350;18.532;2023-03-30T18:46:20;8.80;99.90
19732;DHT22;10017;54.350;18.532;2023-03-30T18:48:52;8.80;99.90
19732;DHT22;10017;54.350;18.532;2023-03-30T18:51:24;8.80;99.90
19732;DHT22;10017;54.350;18.532;2023-03-30T18:53:58;8.80;99.90